Time;durP1;ratioP1;P1;durP2;ratioP2;P2;SDS_P1;SDS_P2;PMS_P1;PMS_P2;Temp;Humidity;BMP_temperature;BMP_pressure;BME280_temperature;BME280_humidity;BME280_pressure;Samples;Min_cycle;Max_cycle;Signal;HPM_P1;HPM_P2
2023/05/30 00:02:21;;;;;;;5.53;1.45;;;11.80;99.90;;;;;;5117215;28;20081;-71
2023/05/30 00:04:47;;;;;;;6.50;1.92;;;11.70;99.90;;;;;;5099021;28;20044;-72
2023/05/30 00:07:12;;;;;;;5.90;1.55;;;11.70;99.90;;;;;;5116158;28;20087;-74
2023/05/30 00:09:38;;;;;;;7.78;1.70;;;11.70;99.90;;;;;;5117827;27;20086;-72
2023/05/30 00:12:04;;;;;;;5.47;1.73;;;11.70;99.90;;;;;;5099039;28;20489;-72
2023/05/30 00:14:30;;;;;;;5.05;1.60;;;11.70;99.90;;;;;;5116928;28;20050;-73
2023/05/30 00:16:58;;;;;;;8.18;1.67;;;11.70;99.90;;;;;;5116831;28;20044;-73
2023/05/30 00:19:23;;;;;;;6.43;2.20;;;11.70;99.90;;;;;;5116416;28;20100;-72
2023/05/30 00:21:49;;;;;;;12.35;2.00;;;11.70;99.90;;;;;;5116870;28;20433;-72
2023/05/30 00:24:15;;;;;;;7.25;2.42;;;11.80;99.90;;;;;;5115938;28;20043;-73
2023/05/30 00:26:41;;;;;;;6.47;1.60;;;11.70;99.90;;;;;;5115600;28;20054;-72
2023/05/30 00:29:06;;;;;;;6.55;1.70;;;11.70;99.90;;;;;;5116269;28;20051;-72
2023/05/30 00:31:32;;;;;;;4.35;1.67;;;11.70;99.90;;;;;;5116549;28;20043;-72
2023/05/30 00:33:58;;;;;;;5.68;1.50;;;11.70;99.90;;;;;;5116568;28;20091;-73
2023/05/30 00:36:23;;;;;;;4.82;1.38;;;11.70;99.90;;;;;;5116533;27;20044;-72
2023/05/30 00:38:49;;;;;;;4.50;1.80;;;11.70;99.90;;;;;;5098496;28;20051;-73
2023/05/30 00:41:16;;;;;;;6.88;1.42;;;11.70;99.90;;;;;;5116965;28;20042;-72
2023/05/30 00:43:42;;;;;;;3.45;1.48;;;11.70;99.90;;;;;;5116622;28;20493;-72
2023/05/30 00:46:10;;;;;;;5.53;2.08;;;11.70;99.90;;;;;;5115818;28;20252;-72
2023/05/30 00:48:37;;;;;;;6.90;1.90;;;11.70;99.90;;;;;;5115459;28;20184;-72
2023/05/30 00:51:05;;;;;;;5.65;1.90;;;11.70;99.90;;;;;;5116985;28;20048;-72
2023/05/30 00:53:31;;;;;;;6.95;2.42;;;11.70;99.90;;;;;;5098132;28;20051;-73
2023/05/30 00:55:57;;;;;;;4.40;1.60;;;11.70;99.90;;;;;;5116123;27;20083;-73
2023/05/30 00:58:23;;;;;;;5.10;1.50;;;11.70;99.90;;;;;;5116033;28;20126;-71
2023/05/30 01:00:49;;;;;;;8.38;2.08;;;11.70;99.90;;;;;;5114873;28;20185;-72
2023/05/30 01:03:15;;;;;;;4.93;1.98;;;11.70;99.90;;;;;;5114715;28;20043;-72
2023/05/30 01:05:42;;;;;;;6.70;2.05;;;11.70;99.90;;;;;;5115389;28;20372;-72
2023/05/30 01:08:10;;;;;;;5.88;2.20;;;11.60;99.90;;;;;;5114891;28;20067;-72
2023/05/30 01:10:37;;;;;;;10.15;1.67;;;11.70;99.90;;;;;;5114866;28;20472;-72
2023/05/30 01:13:42;;;;;;;3.60;1.63;;;11.60;99.90;;;;;;5115783;28;20044;-72
2023/05/30 01:16:16;;;;;;;3.88;1.65;;;11.70;99.90;;;;;;5115191;28;20083;-72
2023/05/30 01:18:53;;;;;;;3.55;1.60;;;11.70;99.90;;;;;;5115485;28;20136;-73
2023/05/30 01:21:24;;;;;;;4.10;1.77;;;11.60;99.90;;;;;;5115674;28;20043;-73
2023/05/30 01:24:19;;;;;;;8.13;2.10;;;11.60;99.90;;;;;;5115555;28;20036;-71
2023/05/30 01:27:11;;;;;;;6.47;1.70;;;11.20;99.90;;;;;;5122295;27;20107;-73
2023/05/30 01:29:39;;;;;;;5.80;1.52;;;11.60;99.90;;;;;;5118362;27;20538;-72
2023/05/30 01:32:06;;;;;;;5.15;1.20;;;11.60;99.90;;;;;;5135922;27;20500;-72
2023/05/30 01:34:32;;;;;;;4.10;1.33;;;11.60;99.90;;;;;;5116979;27;20043;-72
2023/05/30 01:36:57;;;;;;;6.90;1.80;;;11.60;99.90;;;;;;5118533;27;20180;-72
2023/05/30 01:39:23;;;;;;;5.63;1.63;;;11.60;99.90;;;;;;5118471;27;20379;-72
2023/05/30 01:42:08;;;;;;;5.18;1.30;;;11.60;99.90;;;;;;5135722;27;20039;-72
2023/05/30 01:45:01;;;;;;;6.38;1.25;;;11.60;99.90;;;;;;5136232;27;20243;-72
2023/05/30 01:47:30;;;;;;;5.18;1.67;;;11.60;99.90;;;;;;5117746;27;20047;-72
2023/05/30 01:50:01;;;;;;;7.63;1.42;;;11.60;99.90;;;;;;5100502;27;20054;-72
2023/05/30 01:52:33;;;;;;;7.05;1.50;;;11.60;99.90;;;;;;5135676;27;20047;-73
2023/05/30 01:55:04;;;;;;;6.95;1.42;;;11.60;99.90;;;;;;5136357;27;20047;-71
2023/05/30 01:57:30;;;;;;;5.95;1.38;;;11.60;99.90;;;;;;5135452;27;20495;-72
2023/05/30 01:59:59;;;;;;;3.42;1.00;;;11.60;99.90;;;;;;5135384;27;20043;-72
2023/05/30 02:02:25;;;;;;;5.20;1.58;;;11.50;99.90;;;;;;5135319;27;20054;-72
2023/05/30 02:04:51;;;;;;;4.63;1.23;;;11.60;99.90;;;;;;5135295;27;20039;-71
2023/05/30 02:07:16;;;;;;;6.50;1.50;;;11.50;99.90;;;;;;5135217;27;20126;-72
2023/05/30 02:09:43;;;;;;;5.70;1.15;;;11.50;99.90;;;;;;5083307;27;20085;-71
2023/05/30 02:12:09;;;;;;;8.18;1.90;;;11.50;99.90;;;;;;5099556;27;20043;-71
2023/05/30 02:14:36;;;;;;;4.90;1.58;;;11.50;99.90;;;;;;5117058;27;20129;-72
2023/05/30 02:17:02;;;;;;;5.78;2.10;;;11.50;99.90;;;;;;5135055;27;20043;-71
2023/05/30 02:19:28;;;;;;;5.93;1.38;;;11.50;99.90;;;;;;5134727;27;20502;-73
2023/05/30 02:21:54;;;;;;;5.22;1.60;;;11.50;99.90;;;;;;5116947;27;20039;-71
2023/05/30 02:24:21;;;;;;;5.18;1.85;;;11.50;99.90;;;;;;5134907;27;20474;-72
2023/05/30 02:26:47;;;;;;;5.70;1.85;;;11.50;99.90;;;;;;5135312;27;20105;-72
2023/05/30 02:29:12;;;;;;;5.82;1.63;;;11.50;99.90;;;;;;5134968;27;20090;-71
2023/05/30 02:31:38;;;;;;;7.72;1.85;;;11.50;99.90;;;;;;5116720;27;20382;-72
2023/05/30 02:34:04;;;;;;;6.95;1.70;;;11.50;99.90;;;;;;5116729;27;20514;-71
2023/05/30 02:36:30;;;;;;;5.88;1.67;;;11.50;99.90;;;;;;5117340;27;20074;-73
2023/05/30 02:38:56;;;;;;;3.35;1.50;;;11.50;99.90;;;;;;5116700;27;20055;-72
2023/05/30 02:41:22;;;;;;;5.90;1.92;;;11.50;99.90;;;;;;5134341;27;20039;-72
2023/05/30 02:43:49;;;;;;;5.60;1.73;;;11.50;99.90;;;;;;5134708;27;20429;-72
2023/05/30 02:46:15;;;;;;;4.95;2.03;;;11.50;99.90;;;;;;5115787;27;20043;-71
2023/05/30 02:48:40;;;;;;;8.38;2.35;;;11.50;99.90;;;;;;5116294;28;20050;-71
2023/05/30 02:51:06;;;;;;;6.20;2.05;;;11.40;99.90;;;;;;5116442;28;20043;-72
2023/05/30 02:53:32;;;;;;;6.65;2.20;;;11.40;99.90;;;;;;5134590;28;20043;-71
2023/05/30 02:55:57;;;;;;;7.82;2.10;;;11.40;99.90;;;;;;5099536;28;20132;-72
2023/05/30 02:58:23;;;;;;;5.50;1.55;;;11.40;99.90;;;;;;5117146;28;20452;-71
2023/05/30 03:00:49;;;;;;;7.18;2.15;;;11.40;99.90;;;;;;5117277;28;20494;-72
2023/05/30 03:03:15;;;;;;;6.00;1.92;;;11.40;99.90;;;;;;5134549;28;20049;-72
2023/05/30 03:05:41;;;;;;;4.97;2.00;;;11.40;99.90;;;;;;5134471;28;20126;-72
2023/05/30 03:08:07;;;;;;;5.82;2.00;;;11.40;99.90;;;;;;5134423;28;20051;-72
2023/05/30 03:10:33;;;;;;;4.13;1.45;;;11.40;99.90;;;;;;5116308;28;20043;-72
2023/05/30 03:12:59;;;;;;;6.50;1.70;;;11.40;99.90;;;;;;5099977;28;20047;-72
2023/05/30 03:15:26;;;;;;;5.72;1.65;;;11.40;99.90;;;;;;5100212;28;20042;-73
2023/05/30 03:17:52;;;;;;;6.15;1.70;;;11.40;99.90;;;;;;5134326;28;20123;-72
2023/05/30 03:20:18;;;;;;;6.93;1.70;;;11.40;99.90;;;;;;5134874;28;20130;-71
2023/05/30 03:22:44;;;;;;;4.13;1.40;;;11.40;99.90;;;;;;5134372;28;20070;-72
2023/05/30 03:25:12;;;;;;;8.65;1.77;;;11.40;99.90;;;;;;5116458;28;20455;-73
2023/05/30 03:27:38;;;;;;;5.63;1.95;;;11.50;99.90;;;;;;5134706;28;20058;-72
2023/05/30 03:30:05;;;;;;;5.13;1.75;;;11.50;99.90;;;;;;5115983;28;20487;-72
2023/05/30 03:32:31;;;;;;;7.10;1.55;;;11.50;99.90;;;;;;5134251;28;20188;-73
2023/05/30 03:34:57;;;;;;;6.80;1.80;;;11.50;99.90;;;;;;5116072;28;20387;-72
2023/05/30 03:37:23;;;;;;;9.80;1.45;;;11.50;99.90;;;;;;5116176;28;20074;-73
2023/05/30 03:39:49;;;;;;;7.28;2.08;;;11.50;99.90;;;;;;5134174;28;20043;-73
2023/05/30 03:42:14;;;;;;;5.88;1.83;;;11.60;99.90;;;;;;5134353;28;20043;-72
2023/05/30 03:44:40;;;;;;;5.30;1.70;;;11.60;99.90;;;;;;5134100;28;20531;-71
2023/05/30 03:47:06;;;;;;;7.95;1.80;;;11.60;99.90;;;;;;5115924;28;20062;-73
2023/05/30 03:49:32;;;;;;;5.68;1.70;;;11.60;99.90;;;;;;5115941;28;20050;-71
2023/05/30 03:51:57;;;;;;;8.52;1.92;;;11.60;99.90;;;;;;5116223;28;20047;-72
2023/05/30 03:54:23;;;;;;;6.55;1.35;;;11.60;99.90;;;;;;5116006;28;20368;-72
2023/05/30 03:56:49;;;;;;;7.60;1.67;;;11.70;99.90;;;;;;5117234;27;20043;-72
2023/05/30 03:59:15;;;;;;;7.80;1.73;;;11.70;99.90;;;;;;5119639;27;20479;-73
2023/05/30 04:01:41;;;;;;;7.10;1.65;;;11.70;99.90;;;;;;5138558;27;20051;-73
2023/05/30 04:04:07;;;;;;;5.22;1.42;;;11.70;99.90;;;;;;5085690;27;20502;-72
2023/05/30 04:06:34;;;;;;;10.00;2.00;;;11.70;99.90;;;;;;5137636;27;20451;-72
2023/05/30 04:09:02;;;;;;;9.77;1.55;;;11.80;99.90;;;;;;5102480;27;20047;-72
2023/05/30 04:11:28;;;;;;;8.90;1.92;;;11.80;99.90;;;;;;5137788;27;20050;-72
2023/05/30 04:13:54;;;;;;;7.35;1.90;;;11.80;99.90;;;;;;5119342;27;20494;-72
2023/05/30 04:16:20;;;;;;;8.07;2.10;;;11.80;99.90;;;;;;5119091;27;20079;-72
2023/05/30 04:18:47;;;;;;;4.78;1.30;;;11.80;99.90;;;;;;5119172;27;20043;-71
2023/05/30 04:21:13;;;;;;;7.53;1.77;;;11.80;99.90;;;;;;5137419;27;20051;-72
2023/05/30 04:23:42;;;;;;;8.15;1.50;;;11.90;99.90;;;;;;5137034;27;20549;-72
2023/05/30 04:26:10;;;;;;;6.72;1.60;;;11.90;99.90;;;;;;5118876;27;20466;-72
2023/05/30 04:28:39;;;;;;;8.98;1.80;;;11.90;99.90;;;;;;5137862;27;20368;-72
2023/05/30 04:31:08;;;;;;;8.27;1.30;;;11.90;99.90;;;;;;5119059;27;20043;-72
2023/05/30 04:33:35;;;;;;;5.63;1.52;;;11.90;99.90;;;;;;5118903;27;20047;-71
2023/05/30 04:36:05;;;;;;;6.82;1.45;;;11.90;99.90;;;;;;5137097;27;20039;-71
2023/05/30 04:38:34;;;;;;;3.63;1.17;;;11.90;99.90;;;;;;5137910;27;20086;-72
2023/05/30 04:41:03;;;;;;;5.47;1.33;;;11.90;99.90;;;;;;5136942;27;20049;-73
2023/05/30 04:43:29;;;;;;;3.85;1.10;;;11.90;99.90;;;;;;5119029;27;20130;-72
2023/05/30 04:45:55;;;;;;;6.28;1.73;;;11.90;99.90;;;;;;5136839;27;20040;-72
2023/05/30 04:48:22;;;;;;;6.20;1.67;;;12.00;99.90;;;;;;5137589;27;20066;-72
2023/05/30 04:50:48;;;;;;;6.07;1.80;;;11.90;99.90;;;;;;5136799;27;20051;-73
2023/05/30 04:53:17;;;;;;;5.22;1.38;;;11.90;99.90;;;;;;5118458;27;20050;-72
2023/05/30 04:55:44;;;;;;;5.15;1.30;;;11.90;99.90;;;;;;5118855;27;20050;-73
2023/05/30 04:58:11;;;;;;;2.65;1.20;;;11.90;99.90;;;;;;5118515;27;20483;-72
2023/05/30 05:00:37;;;;;;;6.63;1.30;;;11.90;99.90;;;;;;5136668;27;20051;-73
2023/05/30 05:03:03;;;;;;;4.53;1.30;;;12.00;99.90;;;;;;5118303;27;20066;-73
2023/05/30 05:05:29;;;;;;;5.03;1.40;;;12.00;99.90;;;;;;5136456;27;20043;-72
2023/05/30 05:07:54;;;;;;;4.97;1.13;;;12.00;99.90;;;;;;5117503;28;20039;-71
2023/05/30 05:10:20;;;;;;;5.97;1.45;;;12.00;99.90;;;;;;5136483;27;20526;-72
2023/05/30 05:12:46;;;;;;;5.40;1.35;;;12.00;99.90;;;;;;5136614;27;20054;-72
2023/05/30 05:15:12;;;;;;;4.60;1.40;;;12.00;99.90;;;;;;5136352;27;20411;-72
2023/05/30 05:17:38;;;;;;;8.18;1.90;;;12.00;99.90;;;;;;5101302;27;20379;-73
2023/05/30 05:20:05;;;;;;;4.13;1.30;;;12.00;99.90;;;;;;5101124;27;20129;-73
2023/05/30 05:22:32;;;;;;;7.07;1.80;;;12.00;99.90;;;;;;5118862;27;20049;-73
2023/05/30 05:24:58;;;;;;;4.38;1.27;;;12.00;99.90;;;;;;5136039;27;20134;-73
2023/05/30 05:27:26;;;;;;;5.03;1.40;;;12.00;99.90;;;;;;5101453;27;20098;-73
2023/05/30 05:29:51;;;;;;;4.80;1.38;;;12.00;99.90;;;;;;5136319;27;20055;-72
2023/05/30 05:32:17;;;;;;;4.60;1.60;;;12.00;99.90;;;;;;5117826;27;20039;-72
2023/05/30 05:34:43;;;;;;;3.72;1.40;;;12.00;99.90;;;;;;5117675;27;20094;-72
2023/05/30 05:37:08;;;;;;;5.68;1.20;;;12.00;99.90;;;;;;5117639;27;20089;-72
2023/05/30 05:39:35;;;;;;;4.40;1.10;;;12.00;99.90;;;;;;5135799;27;20050;-73
2023/05/30 05:42:04;;;;;;;4.32;1.30;;;12.00;99.90;;;;;;5136593;27;20070;-72
2023/05/30 05:44:30;;;;;;;3.70;1.20;;;12.00;99.90;;;;;;5100979;27;20039;-74
2023/05/30 05:46:56;;;;;;;3.35;1.35;;;12.00;99.90;;;;;;5117586;27;20054;-73
2023/05/30 05:49:22;;;;;;;3.42;1.50;;;12.00;99.90;;;;;;5101295;27;20047;-72
2023/05/30 05:51:48;;;;;;;3.40;1.25;;;12.00;99.90;;;;;;5135684;27;20047;-73
2023/05/30 05:54:14;;;;;;;6.65;1.30;;;12.00;99.90;;;;;;5135807;27;20475;-73
2023/05/30 05:56:40;;;;;;;4.97;1.35;;;12.00;99.90;;;;;;5135486;27;20051;-72
2023/05/30 05:59:06;;;;;;;3.40;1.40;;;12.00;99.90;;;;;;5135718;27;20130;-72
2023/05/30 06:01:31;;;;;;;5.93;1.42;;;12.10;99.90;;;;;;5136278;27;20473;-74
2023/05/30 06:03:57;;;;;;;4.10;1.33;;;12.10;99.90;;;;;;5117170;27;20096;-72
2023/05/30 06:06:23;;;;;;;4.28;1.20;;;12.10;99.90;;;;;;5117060;27;20498;-71
2023/05/30 06:08:48;;;;;;;5.03;1.10;;;12.10;99.90;;;;;;5136186;27;20049;-73
2023/05/30 06:11:14;;;;;;;3.90;1.33;;;12.10;99.90;;;;;;5135305;27;20042;-72
2023/05/30 06:13:40;;;;;;;3.10;1.20;;;12.10;99.90;;;;;;5135839;27;20458;-73
2023/05/30 06:16:06;;;;;;;5.30;1.20;;;12.20;99.90;;;;;;5100131;27;20047;-72
2023/05/30 06:18:31;;;;;;;3.97;1.17;;;12.20;99.90;;;;;;5135856;27;20043;-72
2023/05/30 06:20:57;;;;;;;5.32;1.25;;;12.20;99.90;;;;;;5134925;27;20039;-72
2023/05/30 06:23:23;;;;;;;5.13;1.35;;;12.20;99.90;;;;;;5100922;27;20046;-73
2023/05/30 06:25:48;;;;;;;4.22;1.30;;;12.20;99.90;;;;;;5116656;27;20097;-73
2023/05/30 06:28:14;;;;;;;4.13;1.80;;;12.20;99.90;;;;;;5116528;27;20047;-73
2023/05/30 06:30:40;;;;;;;4.00;1.33;;;12.20;99.90;;;;;;5116748;27;20130;-74
2023/05/30 06:33:06;;;;;;;3.45;1.45;;;12.20;99.90;;;;;;5134991;27;20043;-73
2023/05/30 06:35:31;;;;;;;3.95;1.05;;;12.20;99.90;;;;;;5082906;27;20043;-72
2023/05/30 06:37:57;;;;;;;5.18;1.42;;;12.20;99.90;;;;;;5116542;27;20050;-71
2023/05/30 06:40:23;;;;;;;3.30;1.30;;;12.30;99.90;;;;;;5117413;27;20050;-72
2023/05/30 06:42:48;;;;;;;2.70;0.85;;;12.30;99.90;;;;;;5134366;27;20075;-72
2023/05/30 06:45:14;;;;;;;5.32;1.20;;;12.30;99.90;;;;;;5116311;28;20047;-72
2023/05/30 06:47:40;;;;;;;3.05;1.10;;;12.30;99.90;;;;;;5134772;27;20118;-73
2023/05/30 06:50:09;;;;;;;3.90;1.02;;;12.30;99.90;;;;;;5116579;27;20035;-72
2023/05/30 06:52:35;;;;;;;3.63;1.08;;;12.30;99.90;;;;;;5116366;27;20134;-72
2023/05/30 06:55:00;;;;;;;3.15;0.80;;;12.30;99.90;;;;;;5083543;28;20130;-71
2023/05/30 06:57:26;;;;;;;3.15;0.90;;;12.30;99.90;;;;;;5134599;28;20047;-71
2023/05/30 06:59:52;;;;;;;3.67;0.80;;;12.30;99.90;;;;;;5099492;28;20047;-72
2023/05/30 07:02:17;;;;;;;2.70;0.70;;;12.30;99.90;;;;;;5135418;28;20046;-72
2023/05/30 07:04:43;;;;;;;3.03;0.80;;;12.30;99.90;;;;;;5134509;28;20035;-71
2023/05/30 07:07:09;;;;;;;3.15;0.80;;;12.30;99.90;;;;;;5134629;28;20054;-71
2023/05/30 07:09:35;;;;;;;1.40;0.70;;;12.30;99.90;;;;;;5134981;28;20131;-72
2023/05/30 07:12:00;;;;;;;2.33;0.80;;;12.20;99.90;;;;;;5099529;28;20130;-72
2023/05/30 07:14:26;;;;;;;2.75;0.70;;;12.30;99.90;;;;;;5134398;28;20118;-73
2023/05/30 07:16:52;;;;;;;3.22;0.80;;;12.30;99.90;;;;;;5134386;28;20054;-71
2023/05/30 07:19:18;;;;;;;3.15;0.80;;;12.30;99.90;;;;;;5134316;28;20054;-72
2023/05/30 07:21:43;;;;;;;1.40;0.73;;;12.30;99.90;;;;;;5134303;28;20166;-72
2023/05/30 07:24:09;;;;;;;3.20;0.90;;;12.30;99.90;;;;;;5099420;28;20497;-71
2023/05/30 07:26:35;;;;;;;2.97;1.00;;;12.20;99.90;;;;;;5134784;28;20055;-72
2023/05/30 07:29:02;;;;;;;2.33;1.02;;;12.20;99.90;;;;;;5099992;28;20050;-72
2023/05/30 07:31:27;;;;;;;3.42;0.88;;;12.30;99.90;;;;;;5135463;27;20061;-71
2023/05/30 07:33:53;;;;;;;4.20;1.20;;;12.30;99.90;;;;;;5120117;27;20055;-72
2023/05/30 07:36:19;;;;;;;1.65;0.60;;;12.30;99.90;;;;;;5139052;27;20043;-72
2023/05/30 07:38:45;;;;;;;4.38;1.23;;;12.30;99.90;;;;;;5121530;27;20039;-73
2023/05/30 07:41:10;;;;;;;2.63;0.80;;;12.40;99.90;;;;;;5138322;27;20054;-72
2023/05/30 07:43:36;;;;;;;3.08;1.13;;;12.40;99.90;;;;;;5138267;27;20050;-71
2023/05/30 07:46:02;;;;;;;1.85;0.70;;;12.40;99.90;;;;;;5138676;27;20084;-71
2023/05/30 07:48:28;;;;;;;1.40;0.60;;;12.40;99.90;;;;;;5138105;27;20376;-74
2023/05/30 07:50:53;;;;;;;3.63;0.77;;;12.40;99.90;;;;;;5138069;27;20043;-72
2023/05/30 07:53:19;;;;;;;1.13;0.70;;;12.40;99.90;;;;;;5138527;27;20479;-72
2023/05/30 07:55:46;;;;;;;2.00;0.60;;;12.30;99.90;;;;;;5119738;27;20039;-72
2023/05/30 07:58:11;;;;;;;3.00;0.82;;;12.30;99.90;;;;;;5138806;27;20383;-72
2023/05/30 08:00:37;;;;;;;1.58;0.52;;;12.30;99.90;;;;;;5137906;27;20047;-73
2023/05/30 08:03:03;;;;;;;1.48;0.50;;;12.40;99.90;;;;;;5119800;27;20477;-73
2023/05/30 08:05:29;;;;;;;1.45;0.45;;;12.40;99.90;;;;;;5119495;27;20539;-72
2023/05/30 08:07:54;;;;;;;1.50;0.40;;;12.30;99.90;;;;;;5119172;27;20046;-72
2023/05/30 08:10:20;;;;;;;1.48;0.50;;;12.40;99.90;;;;;;5119604;27;20058;-74
2023/05/30 08:12:47;;;;;;;1.70;0.30;;;12.40;99.90;;;;;;5138207;27;20047;-71
2023/05/30 08:15:13;;;;;;;0.90;0.20;;;12.50;99.90;;;;;;5137624;27;20047;-72
2023/05/30 08:17:40;;;;;;;0.40;0.30;;;12.50;99.90;;;;;;5119227;27;20127;-72
2023/05/30 08:20:08;;;;;;;0.98;0.32;;;12.60;99.90;;;;;;5119081;27;20043;-73
2023/05/30 08:22:34;;;;;;;0.85;0.30;;;12.60;99.90;;;;;;5119738;27;20170;-73
2023/05/30 08:25:00;;;;;;;0.85;0.28;;;12.70;99.90;;;;;;5137920;27;20110;-73
2023/05/30 08:27:28;;;;;;;0.70;0.22;;;12.80;99.90;;;;;;5119540;27;20055;-74
2023/05/30 08:29:54;;;;;;;0.38;0.28;;;12.90;99.90;;;;;;5137324;27;20043;-74
2023/05/30 08:32:20;;;;;;;0.70;0.20;;;13.00;99.90;;;;;;5119592;27;20043;-73
2023/05/30 08:34:46;;;;;;;0.40;0.30;;;13.10;99.90;;;;;;5137297;27;20407;-73
2023/05/30 08:37:12;;;;;;;0.95;0.35;;;13.10;99.90;;;;;;5137796;27;20047;-73
2023/05/30 08:39:38;;;;;;;0.38;0.30;;;13.20;99.90;;;;;;5118971;27;20115;-75
2023/05/30 08:42:05;;;;;;;0.30;0.30;;;13.30;99.90;;;;;;5118705;27;20039;-74
2023/05/30 08:44:31;;;;;;;0.50;0.35;;;13.30;99.90;;;;;;5135836;27;20051;-72
2023/05/30 08:46:57;;;;;;;0.80;0.40;;;13.40;99.90;;;;;;5137586;27;20046;-72
2023/05/30 08:49:24;;;;;;;0.60;0.30;;;13.40;99.90;;;;;;5136959;27;20051;-72
2023/05/30 08:51:50;;;;;;;1.65;0.40;;;13.40;99.90;;;;;;5118785;27;20047;-74
2023/05/30 08:54:24;;;;;;;0.32;0.30;;;13.40;99.90;;;;;;5118596;27;20039;-73
2023/05/30 08:57:04;;;;;;;0.40;0.22;;;13.30;99.90;;;;;;5136470;27;20483;-74
2023/05/30 08:59:30;;;;;;;1.15;0.30;;;13.30;99.90;;;;;;5118973;27;20054;-73
2023/05/30 09:01:57;;;;;;;0.88;0.30;;;13.40;99.90;;;;;;5136351;27;20042;-72
2023/05/30 09:04:25;;;;;;;1.30;0.30;;;13.40;99.90;;;;;;5118509;27;20043;-74
2023/05/30 09:06:54;;;;;;;1.05;0.30;;;13.40;99.90;;;;;;5136016;27;20086;-74
2023/05/30 09:09:21;;;;;;;1.80;0.40;;;13.30;99.90;;;;;;5135816;27;20041;-72
2023/05/30 09:11:47;;;;;;;1.25;0.43;;;13.30;99.90;;;;;;5135675;27;20043;-72
2023/05/30 09:14:13;;;;;;;1.52;0.35;;;13.20;99.90;;;;;;5135834;27;20100;-73
2023/05/30 09:16:39;;;;;;;0.60;0.40;;;13.20;99.90;;;;;;5118226;27;20039;-74
2023/05/30 09:19:06;;;;;;;0.68;0.50;;;13.20;99.90;;;;;;5101618;27;20461;-75
2023/05/30 09:21:32;;;;;;;1.10;0.40;;;13.20;99.90;;;;;;5101138;27;20494;-74
2023/05/30 09:24:05;;;;;;;1.27;0.40;;;13.20;99.90;;;;;;5136303;27;20051;-75
2023/05/30 09:26:32;;;;;;;0.65;0.40;;;13.20;99.90;;;;;;5117972;27;20054;-73
2023/05/30 09:29:09;;;;;;;0.90;0.50;;;13.20;99.90;;;;;;5118427;27;20059;-74
2023/05/30 09:31:36;;;;;;;0.73;0.55;;;13.20;99.90;;;;;;5136490;27;20441;-73
2023/05/30 09:34:02;;;;;;;0.82;0.40;;;13.10;99.90;;;;;;5136096;27;20196;-73
2023/05/30 09:36:28;;;;;;;0.52;0.40;;;13.20;99.90;;;;;;5136560;27;20126;-74
2023/05/30 09:39:06;;;;;;;1.00;0.40;;;13.20;99.90;;;;;;5117849;27;20519;-74
2023/05/30 09:41:33;;;;;;;1.13;0.40;;;13.20;99.90;;;;;;5118384;27;20046;-74
2023/05/30 09:43:59;;;;;;;0.77;0.40;;;13.20;99.90;;;;;;5117663;27;20047;-74
2023/05/30 09:46:27;;;;;;;0.98;0.40;;;13.30;99.90;;;;;;5083859;27;20122;-75
2023/05/30 09:48:54;;;;;;;2.15;0.50;;;13.30;99.90;;;;;;5101167;27;20073;-74
2023/05/30 09:51:21;;;;;;;2.05;0.40;;;13.30;99.90;;;;;;5117917;27;20047;-74
2023/05/30 09:54:13;;;;;;;1.00;0.38;;;13.30;99.90;;;;;;5100173;27;20050;-74
2023/05/30 09:56:41;;;;;;;1.63;0.40;;;13.30;99.90;;;;;;5131930;27;20059;-74
2023/05/30 09:59:12;;;;;;;1.45;0.45;;;13.30;99.90;;;;;;5136090;27;20111;-73
2023/05/30 10:01:48;;;;;;;2.08;0.50;;;13.30;99.90;;;;;;5117001;27;20047;-72
2023/05/30 10:04:15;;;;;;;0.88;0.60;;;13.20;99.90;;;;;;5135875;27;20051;-72
2023/05/30 10:06:43;;;;;;;3.22;0.50;;;13.20;99.90;;;;;;5135797;27;20050;-73
2023/05/30 10:09:11;;;;;;;1.20;0.50;;;13.20;99.90;;;;;;5135377;27;20050;-73
2023/05/30 10:11:38;;;;;;;2.80;0.50;;;13.30;99.90;;;;;;5117185;27;20051;-72
2023/05/30 10:14:05;;;;;;;1.92;0.50;;;13.40;99.90;;;;;;5135183;27;20043;-73
2023/05/30 10:16:40;;;;;;;1.40;0.50;;;13.40;99.90;;;;;;5135941;27;20043;-73
2023/05/30 10:19:11;;;;;;;0.30;0.30;;;13.50;99.90;;;;;;5135464;27;20043;-73
2023/05/30 10:21:38;;;;;;;1.35;0.40;;;13.50;99.90;;;;;;5135583;27;20130;-74
2023/05/30 10:24:09;;;;;;;2.05;0.60;;;13.60;99.90;;;;;;5134973;27;20046;-75
2023/05/30 10:26:39;;;;;;;2.78;0.70;;;13.60;99.90;;;;;;5134799;27;20058;-74
2023/05/30 10:29:08;;;;;;;2.42;0.60;;;13.60;99.90;;;;;;5116880;27;20043;-73
2023/05/30 10:31:36;;;;;;;0.80;0.50;;;13.60;99.90;;;;;;5134858;27;20043;-72
2023/05/30 10:34:06;;;;;;;0.77;0.45;;;13.70;99.90;;;;;;5134919;27;20047;-72
2023/05/30 10:36:34;;;;;;;1.83;0.60;;;13.70;99.90;;;;;;5135452;27;20050;-73
2023/05/30 10:39:23;;;;;;;0.50;0.40;;;13.70;99.90;;;;;;5118425;28;20043;-72
2023/05/30 10:42:01;;;;;;;0.50;0.40;;;13.70;99.90;;;;;;5076096;27;20055;-72
2023/05/30 10:44:55;;;;;;;0.68;0.40;;;13.70;99.90;;;;;;5117510;28;20466;-73
2023/05/30 10:47:40;;;;;;;2.45;0.60;;;13.80;99.90;;;;;;5100049;27;20051;-74
2023/05/30 10:50:14;;;;;;;1.40;0.40;;;13.80;99.90;;;;;;5135615;27;20121;-73
2023/05/30 10:52:40;;;;;;;1.45;0.50;;;13.90;99.90;;;;;;5134778;27;20050;-74
2023/05/30 10:55:10;;;;;;;0.82;0.40;;;13.90;99.90;;;;;;5082944;27;20134;-73
2023/05/30 10:57:36;;;;;;;0.88;0.40;;;13.90;99.90;;;;;;5134617;27;20126;-74
2023/05/30 11:00:23;;;;;;;1.98;0.60;;;13.90;99.90;;;;;;5134670;27;20131;-73
2023/05/30 11:02:54;;;;;;;0.70;0.50;;;13.90;99.90;;;;;;5134732;28;20086;-71
2023/05/30 11:05:33;;;;;;;2.20;0.60;;;13.80;99.90;;;;;;5135064;27;20043;-70
2023/05/30 11:08:01;;;;;;;0.80;0.40;;;13.80;99.90;;;;;;5138988;27;20107;-71
2023/05/30 11:10:28;;;;;;;1.05;0.30;;;13.90;99.90;;;;;;5138884;27;20471;-71
2023/05/30 11:13:08;;;;;;;0.50;0.22;;;13.90;99.90;;;;;;5138870;27;20051;-70
2023/05/30 11:15:34;;;;;;;0.60;0.25;;;13.90;99.90;;;;;;5103996;27;20078;-71
2023/05/30 11:18:00;;;;;;;1.83;0.30;;;14.00;99.90;;;;;;5138660;27;20051;-72
2023/05/30 11:20:26;;;;;;;2.15;0.43;;;14.00;99.90;;;;;;5120579;27;20042;-71
2023/05/30 11:23:01;;;;;;;1.05;0.40;;;14.00;99.90;;;;;;5103852;27;20062;-72
2023/05/30 11:25:29;;;;;;;0.80;0.40;;;14.10;99.90;;;;;;5139080;27;20047;-73
2023/05/30 11:28:05;;;;;;;0.32;0.32;;;14.10;99.90;;;;;;5119857;27;20047;-74
2023/05/30 11:30:38;;;;;;;0.50;0.30;;;14.20;99.90;;;;;;5120156;27;20043;-72
2023/05/30 11:33:08;;;;;;;0.57;0.40;;;14.20;99.90;;;;;;5138535;27;20047;-72
2023/05/30 11:35:34;;;;;;;0.60;0.38;;;14.30;99.90;;;;;;5121165;27;20051;-72
2023/05/30 11:38:01;;;;;;;0.80;0.50;;;14.30;99.90;;;;;;5119977;27;20487;-72
2023/05/30 11:40:28;;;;;;;0.88;0.50;;;14.20;99.90;;;;;;5103995;27;20045;-73
2023/05/30 11:42:54;;;;;;;0.47;0.40;;;14.10;99.90;;;;;;5103100;27;20522;-72
2023/05/30 11:45:24;;;;;;;0.63;0.40;;;14.20;99.90;;;;;;5138711;27;20051;-73
2023/05/30 11:47:50;;;;;;;0.95;0.40;;;14.10;99.90;;;;;;5138652;27;20124;-71
2023/05/30 11:50:17;;;;;;;0.60;0.32;;;14.10;99.90;;;;;;5138621;27;20606;-73
2023/05/30 11:52:43;;;;;;;0.45;0.30;;;14.10;99.90;;;;;;5120166;27;20043;-74
2023/05/30 11:55:09;;;;;;;1.23;0.28;;;14.10;99.90;;;;;;5119938;27;20051;-73
2023/05/30 11:57:35;;;;;;;0.63;0.40;;;14.20;99.90;;;;;;5137843;27;20046;-73
2023/05/30 12:00:01;;;;;;;0.98;0.30;;;14.20;99.90;;;;;;5119559;27;20483;-74
2023/05/30 12:02:28;;;;;;;0.98;0.40;;;14.30;99.90;;;;;;5137892;27;20054;-74
2023/05/30 12:05:02;;;;;;;0.70;0.40;;;14.40;99.90;;;;;;5137766;27;20071;-74
2023/05/30 12:07:27;;;;;;;0.60;0.38;;;14.50;99.90;;;;;;5138193;27;20047;-73
2023/05/30 12:09:53;;;;;;;0.55;0.40;;;14.60;99.90;;;;;;5137715;27;20566;-73
2023/05/30 12:12:20;;;;;;;1.20;0.43;;;14.70;99.90;;;;;;5102917;27;20051;-74
2023/05/30 12:14:46;;;;;;;1.38;0.50;;;14.70;99.90;;;;;;5138202;27;20043;-74
2023/05/30 12:17:14;;;;;;;1.65;0.50;;;14.80;99.90;;;;;;5118946;27;20046;-72
2023/05/30 12:19:43;;;;;;;0.70;0.40;;;14.90;99.90;;;;;;5119325;27;20055;-73
2023/05/30 12:22:15;;;;;;;1.67;0.60;;;14.90;99.90;;;;;;5102729;27;20039;-73
2023/05/30 12:24:41;;;;;;;0.57;0.50;;;15.00;99.90;;;;;;5138081;27;20042;-73
2023/05/30 12:27:16;;;;;;;0.40;0.30;;;15.00;99.90;;;;;;5118890;27;20056;-74
2023/05/30 12:29:42;;;;;;;1.50;0.30;;;15.10;99.90;;;;;;5102593;27;20497;-74
2023/05/30 12:32:08;;;;;;;1.60;0.38;;;15.10;99.90;;;;;;5119153;27;20288;-74
2023/05/30 12:34:45;;;;;;;0.50;0.30;;;15.10;99.90;;;;;;5138441;27;20043;-74
2023/05/30 12:37:11;;;;;;;0.60;0.50;;;15.10;99.90;;;;;;5119213;27;20505;-73
2023/05/30 12:39:56;;;;;;;1.05;0.30;;;15.10;99.90;;;;;;5118691;27;20063;-76
2023/05/30 12:42:23;;;;;;;1.02;0.30;;;15.10;99.90;;;;;;5137817;27;20062;-74
2023/05/30 12:44:52;;;;;;;0.50;0.30;;;15.10;99.90;;;;;;5101886;27;20031;-74
2023/05/30 12:47:18;;;;;;;0.43;0.30;;;15.10;99.90;;;;;;5137032;27;20498;-73
2023/05/30 12:49:44;;;;;;;0.50;0.30;;;15.10;99.90;;;;;;5136891;27;20043;-75